createdAt,value
2023-04-05T00:01:14.392Z,3.60
2023-04-05T00:04:03.879Z,3.50
2023-04-05T00:06:52.873Z,3.50
2023-04-05T00:09:41.390Z,3.40
2023-04-05T00:12:29.437Z,3.30
2023-04-05T00:15:17.640Z,3.20
2023-04-05T00:18:06.576Z,3.20
2023-04-05T00:20:56.081Z,3.10
2023-04-05T00:23:45.092Z,3.10
2023-04-05T00:26:33.131Z,3.00
2023-04-05T00:29:21.145Z,3.00
2023-04-05T00:32:09.165Z,3.00
2023-04-05T00:34:57.189Z,2.90
2023-04-05T00:37:46.598Z,2.80
2023-04-05T00:40:34.685Z,2.80
2023-04-05T00:43:23.017Z,2.70
2023-04-05T00:46:11.139Z,2.70
2023-04-05T00:48:59.225Z,2.70
2023-04-05T00:51:47.639Z,2.60
2023-04-05T00:54:39.177Z,2.60
2023-04-05T00:57:30.136Z,2.50
2023-04-05T01:00:18.463Z,2.40
2023-04-05T01:03:08.530Z,2.40
2023-04-05T01:05:59.033Z,2.40
2023-04-05T01:08:51.546Z,2.30
2023-04-05T01:11:41.321Z,2.30
2023-04-05T01:14:29.278Z,2.30
2023-04-05T01:17:22.277Z,2.30
2023-04-05T01:20:11.844Z,2.20
2023-04-05T01:23:06.615Z,2.20
2023-04-05T01:26:12.309Z,2.20
2023-04-05T01:29:09.771Z,2.10
2023-04-05T01:32:01.600Z,2.00
2023-04-05T01:34:52.610Z,2.00
2023-04-05T01:37:41.369Z,1.90
2023-04-05T01:40:31.220Z,1.90
2023-04-05T01:43:19.720Z,1.90
2023-04-05T01:46:08.020Z,1.80
2023-04-05T01:48:57.474Z,1.80
2023-04-05T01:51:45.718Z,1.80
2023-04-05T01:54:33.738Z,1.80
2023-04-05T01:57:21.781Z,1.80
2023-04-05T02:00:10.640Z,1.70
2023-04-05T02:02:58.767Z,1.70
2023-04-05T02:05:48.154Z,1.70
2023-04-05T02:08:36.174Z,1.70
2023-04-05T02:11:24.202Z,1.70
2023-04-05T02:14:12.392Z,1.60
2023-04-05T02:17:03.297Z,1.50
2023-04-05T02:19:53.161Z,1.60
2023-04-05T02:22:45.344Z,1.60
2023-04-05T02:25:33.699Z,1.50
2023-04-05T02:28:21.717Z,1.50
2023-04-05T02:31:10.251Z,1.40
2023-04-05T02:34:00.972Z,1.40
2023-04-05T02:36:49.425Z,1.40
2023-04-05T02:39:38.832Z,1.40
2023-04-05T02:42:26.849Z,1.40
2023-04-05T02:45:14.899Z,1.40
2023-04-05T02:48:02.954Z,1.40
2023-04-05T02:50:51.436Z,1.40
2023-04-05T02:53:39.491Z,1.40
2023-04-05T02:56:29.182Z,1.40
2023-04-05T02:59:17.628Z,1.40
2023-04-05T03:02:05.716Z,1.40
2023-04-05T03:04:54.273Z,1.40
2023-04-05T03:07:46.870Z,1.50
2023-04-05T03:10:39.089Z,1.40
2023-04-05T03:13:28.463Z,1.40
2023-04-05T03:16:16.653Z,1.30
2023-04-05T03:19:05.480Z,1.30
2023-04-05T03:21:53.791Z,1.30
2023-04-05T03:24:42.597Z,1.20
2023-04-05T03:27:30.733Z,1.20
2023-04-05T03:30:20.109Z,1.10
2023-04-05T03:33:08.568Z,1.10
2023-04-05T03:35:56.673Z,1.10
2023-04-05T03:38:45.503Z,1.00
2023-04-05T03:41:33.525Z,1.00
2023-04-05T03:44:21.571Z,0.90
2023-04-05T03:47:11.182Z,1.00
2023-04-05T03:49:59.195Z,0.90
2023-04-05T03:52:47.361Z,0.90
2023-04-05T03:55:35.398Z,0.90
2023-04-05T03:58:23.861Z,0.70
2023-04-05T04:01:12.147Z,0.70
2023-04-05T04:04:01.505Z,0.70
2023-04-05T04:06:49.523Z,0.70
2023-04-05T04:09:37.560Z,0.70
2023-04-05T04:12:25.623Z,0.70
2023-04-05T04:15:13.783Z,0.70
2023-04-05T04:18:01.894Z,0.70
2023-04-05T04:20:52.322Z,0.70
2023-04-05T04:23:40.428Z,0.70
2023-04-05T04:26:29.125Z,0.70
2023-04-05T04:29:17.352Z,0.80
2023-04-05T04:32:07.755Z,0.80
2023-04-05T04:34:55.965Z,0.70
2023-04-05T04:37:46.822Z,0.60
2023-04-05T04:40:38.806Z,0.60
2023-04-05T04:43:27.736Z,0.60
2023-04-05T04:46:15.876Z,0.60
2023-04-05T04:49:05.912Z,0.60
2023-04-05T04:51:53.953Z,0.60
2023-04-05T04:54:43.303Z,0.50
2023-04-05T04:57:31.338Z,0.40
2023-04-05T05:00:20.700Z,0.40
2023-04-05T05:03:11.315Z,0.40
2023-04-05T05:05:59.552Z,0.40
2023-04-05T05:08:47.592Z,0.40
2023-04-05T05:11:36.949Z,0.40
2023-04-05T05:14:25.462Z,0.40
2023-04-05T05:17:13.469Z,0.50
2023-04-05T05:20:01.854Z,0.40
2023-04-05T05:22:49.864Z,0.40
2023-04-05T05:25:38.604Z,0.30
2023-04-05T05:28:28.559Z,0.40
2023-04-05T05:31:17.832Z,0.50
2023-04-05T05:34:06.388Z,0.60
2023-04-05T05:36:54.693Z,0.70
2023-04-05T05:39:44.514Z,0.80
2023-04-05T05:42:34.094Z,0.80
2023-04-05T05:45:23.471Z,0.90
2023-04-05T05:48:12.103Z,0.90
2023-04-05T05:51:03.712Z,1.00
2023-04-05T05:53:51.757Z,1.10
2023-04-05T05:56:39.796Z,1.10
2023-04-05T05:59:27.930Z,1.20
2023-04-05T06:02:17.432Z,1.30
2023-04-05T06:05:05.869Z,1.40
2023-04-05T06:07:53.862Z,1.50
2023-04-05T06:10:42.497Z,1.60
2023-04-05T06:13:31.027Z,1.60
2023-04-05T06:16:19.189Z,1.70
2023-04-05T06:19:08.677Z,1.80
2023-04-05T06:21:56.694Z,1.90
2023-04-05T06:24:44.790Z,2.00
2023-04-05T06:27:32.815Z,2.10
2023-04-05T06:30:21.046Z,2.10
2023-04-05T06:33:09.076Z,2.20
2023-04-05T06:35:58.498Z,2.30
2023-04-05T06:38:46.656Z,2.30
2023-04-05T06:41:35.001Z,2.40
2023-04-05T06:44:23.145Z,2.50
2023-04-05T06:47:11.321Z,2.60
2023-04-05T06:49:59.358Z,2.70
2023-04-05T06:52:48.719Z,2.80
2023-04-05T06:55:36.709Z,2.90
2023-04-05T06:58:24.877Z,3.00
2023-04-05T07:01:12.999Z,3.00
2023-04-05T07:04:01.355Z,3.10
2023-04-05T07:06:49.422Z,3.20
2023-04-05T07:09:40.007Z,3.30
2023-04-05T07:12:28.035Z,3.50
2023-04-05T07:15:16.283Z,3.50
2023-04-05T07:18:04.487Z,3.70
2023-04-05T07:20:54.719Z,3.80
2023-04-05T07:23:43.068Z,3.90
2023-04-05T07:26:35.005Z,4.00
2023-04-05T07:29:23.130Z,4.10
2023-04-05T07:32:11.496Z,4.10
2023-04-05T07:34:59.631Z,4.20
2023-04-05T07:37:47.749Z,4.30
2023-04-05T07:40:35.937Z,4.40
2023-04-05T07:43:25.827Z,4.50
2023-04-05T07:46:13.956Z,4.60
2023-04-05T07:49:02.000Z,4.70
2023-04-05T07:51:51.030Z,4.80
2023-04-05T07:54:39.658Z,4.80
2023-04-05T07:57:27.664Z,4.90
2023-04-05T08:00:17.497Z,5.10
2023-04-05T08:03:05.783Z,5.20
2023-04-05T08:05:54.909Z,5.20
2023-04-05T08:08:43.029Z,5.30
2023-04-05T08:11:31.788Z,5.40
2023-04-05T08:14:19.819Z,5.50
2023-04-05T08:17:09.206Z,5.60
2023-04-05T08:19:57.275Z,5.60
2023-04-05T08:22:45.363Z,5.70
2023-04-05T08:25:33.372Z,5.70
2023-04-05T08:28:21.648Z,5.80
2023-04-05T08:31:10.856Z,5.80
2023-04-05T08:34:01.748Z,6.00
2023-04-05T08:36:49.760Z,6.00
2023-04-05T08:39:37.815Z,6.10
2023-04-05T08:42:30.357Z,6.30
2023-04-05T08:45:19.237Z,6.30
2023-04-05T08:48:07.610Z,6.30
2023-04-05T08:50:57.063Z,6.30
2023-04-05T08:53:45.104Z,6.50
2023-04-05T08:56:33.927Z,6.50
2023-04-05T08:59:22.775Z,6.70
2023-04-05T09:02:14.737Z,6.70
2023-04-05T09:05:03.804Z,6.90
2023-04-05T09:07:53.730Z,6.90
2023-04-05T09:10:41.964Z,7.00
2023-04-05T09:13:30.066Z,7.00
2023-04-05T09:16:18.499Z,7.10
2023-04-05T09:19:06.604Z,7.20
2023-04-05T09:22:01.635Z,7.20
2023-04-05T09:24:51.042Z,7.20
2023-04-05T09:27:56.318Z,7.30
2023-04-05T09:30:47.159Z,7.30
2023-04-05T09:33:35.290Z,7.40
2023-04-05T09:36:23.312Z,7.40
2023-04-05T09:39:11.409Z,7.50
2023-04-05T09:42:07.851Z,7.50
2023-04-05T09:44:57.080Z,7.60
2023-04-05T09:47:54.617Z,7.70
2023-04-05T09:50:43.220Z,7.80
2023-04-05T09:53:31.364Z,7.90
2023-04-05T09:56:19.819Z,8.00
2023-04-05T09:59:10.770Z,8.10
2023-04-05T10:01:59.059Z,8.20
2023-04-05T10:04:48.413Z,8.20
2023-04-05T10:07:36.927Z,8.30
2023-04-05T10:10:25.293Z,8.40
2023-04-05T10:13:13.407Z,8.50
2023-04-05T10:16:03.464Z,8.40
2023-04-05T10:18:52.685Z,8.40
2023-04-05T10:21:42.016Z,8.50
2023-04-05T10:24:36.649Z,8.70
2023-04-05T10:27:28.849Z,8.80
2023-04-05T10:30:17.215Z,8.90
2023-04-05T10:33:12.688Z,9.00
2023-04-05T10:36:08.416Z,9.10
2023-04-05T10:39:01.057Z,9.10
2023-04-05T10:41:49.751Z,9.20
2023-04-05T10:44:37.883Z,9.20
2023-04-05T10:47:28.029Z,9.20
2023-04-05T10:50:19.751Z,9.30
2023-04-05T10:53:08.329Z,9.40
2023-04-05T10:55:56.870Z,9.50
2023-04-05T10:58:45.610Z,9.50
2023-04-05T11:01:33.951Z,9.50
2023-04-05T11:04:22.197Z,9.60
2023-04-05T11:07:16.027Z,9.70
2023-04-05T11:10:05.751Z,9.80
2023-04-05T11:13:10.707Z,9.90
2023-04-05T11:16:09.617Z,9.90
2023-04-05T11:18:57.737Z,9.80
2023-04-05T11:21:45.981Z,9.70
2023-04-05T11:24:50.694Z,9.80
2023-04-05T11:27:41.107Z,9.90
2023-04-05T11:30:44.108Z,10.20
2023-04-05T11:33:38.946Z,10.50
2023-04-05T11:36:34.011Z,11.10
2023-04-05T11:39:28.290Z,11.50
2023-04-05T11:42:18.898Z,11.90
2023-04-05T11:45:07.373Z,12.20
2023-04-05T11:47:55.706Z,12.30
2023-04-05T11:50:45.155Z,12.40
2023-04-05T11:53:33.202Z,12.60
2023-04-05T11:56:21.756Z,13.00
2023-04-05T11:59:14.434Z,13.30
2023-04-05T12:02:03.784Z,13.60
2023-04-05T12:04:55.838Z,13.70
2023-04-05T12:07:43.950Z,13.50
2023-04-05T12:10:32.013Z,13.50
2023-04-05T12:13:25.951Z,13.50
2023-04-05T12:16:15.667Z,13.50
2023-04-05T12:19:03.715Z,13.50
2023-04-05T12:21:51.881Z,13.50
2023-04-05T12:24:39.994Z,13.60
2023-04-05T12:27:28.174Z,13.80
2023-04-05T12:30:17.699Z,13.90
2023-04-05T12:33:10.546Z,14.10
2023-04-05T12:35:58.925Z,14.20
2023-04-05T12:38:48.388Z,14.60
2023-04-05T12:41:38.207Z,14.40
2023-04-05T12:44:30.277Z,13.90
2023-04-05T12:47:18.348Z,13.40
2023-04-05T12:50:14.979Z,13.50
2023-04-05T12:53:06.123Z,13.20
2023-04-05T12:55:55.028Z,13.00
2023-04-05T12:58:43.074Z,12.70
2023-04-05T13:01:32.064Z,12.50
2023-04-05T13:04:20.219Z,12.30
2023-04-05T13:07:09.644Z,12.20
2023-04-05T13:09:57.640Z,12.80
2023-04-05T13:12:46.275Z,12.90
2023-04-05T13:15:34.537Z,12.60
2023-04-05T13:18:22.697Z,12.40
2023-04-05T13:21:11.391Z,12.10
2023-04-05T13:24:00.932Z,11.90
2023-04-05T13:26:48.963Z,11.70
2023-04-05T13:29:36.965Z,11.60
2023-04-05T13:32:25.074Z,11.50
2023-04-05T13:35:13.147Z,11.40
2023-04-05T13:38:04.337Z,11.30
2023-04-05T13:40:54.106Z,11.20
2023-04-05T13:43:42.203Z,11.10
2023-04-05T13:46:30.409Z,11.20
2023-04-05T13:49:18.576Z,11.10
2023-04-05T13:52:06.658Z,11.00
2023-04-05T13:55:01.857Z,10.90
2023-04-05T13:57:52.766Z,10.90
2023-04-05T14:00:41.178Z,11.00
2023-04-05T14:03:29.482Z,10.90
2023-04-05T14:06:17.584Z,10.90
2023-04-05T14:09:05.701Z,10.90
2023-04-05T14:11:53.791Z,11.30
2023-04-05T14:14:43.126Z,13.20
2023-04-05T14:17:31.184Z,15.00
2023-04-05T14:20:19.458Z,16.40
2023-04-05T14:23:07.512Z,17.50
2023-04-05T14:25:55.553Z,18.20
2023-04-05T14:28:43.624Z,18.80
2023-04-05T14:31:33.103Z,19.30
2023-04-05T14:34:21.182Z,19.90
2023-04-05T14:37:09.274Z,20.80
2023-04-05T14:39:57.332Z,21.90
2023-04-05T14:42:49.604Z,22.80
2023-04-05T14:45:38.141Z,23.90
2023-04-05T14:48:28.068Z,23.50
2023-04-05T14:51:16.243Z,21.50
2023-04-05T14:54:04.429Z,19.30
2023-04-05T14:56:52.507Z,17.70
2023-04-05T14:59:40.707Z,16.60
2023-04-05T15:02:29.233Z,15.90
2023-04-05T15:05:18.965Z,15.30
2023-04-05T15:08:07.061Z,14.80
2023-04-05T15:10:56.133Z,14.30
2023-04-05T15:13:44.187Z,13.90
2023-04-05T15:16:32.243Z,13.60
2023-04-05T15:19:20.434Z,13.40
2023-04-05T15:22:09.849Z,13.10
2023-04-05T15:24:59.017Z,12.80
2023-04-05T15:27:47.051Z,12.50
2023-04-05T15:30:35.258Z,12.30
2023-04-05T15:33:23.309Z,12.10
2023-04-05T15:36:11.474Z,12.10
2023-04-05T15:39:00.923Z,12.00
2023-04-05T15:41:49.059Z,11.90
2023-04-05T15:44:37.118Z,11.80
2023-04-05T15:47:25.187Z,11.60
2023-04-05T15:50:13.295Z,11.60
2023-04-05T15:53:01.376Z,11.50
2023-04-05T15:55:50.837Z,11.50
2023-04-05T15:58:38.908Z,11.40
2023-04-05T16:01:26.963Z,11.40
2023-04-05T16:04:15.154Z,11.40
2023-04-05T16:07:03.252Z,11.20
2023-04-05T16:09:51.467Z,11.10
2023-04-05T16:12:40.936Z,11.10
2023-04-05T16:15:29.270Z,11.10
2023-04-05T16:18:19.669Z,11.10
2023-04-05T16:21:07.909Z,11.30
2023-04-05T16:23:56.826Z,11.20
2023-04-05T16:26:44.920Z,11.00
2023-04-05T16:29:34.437Z,10.90
2023-04-05T16:32:22.516Z,10.80
2023-04-05T16:35:10.706Z,10.90
2023-04-05T16:37:59.272Z,10.70
2023-04-05T16:40:47.282Z,10.60
2023-04-05T16:43:35.447Z,10.50
2023-04-05T16:46:25.224Z,10.60
2023-04-05T16:49:15.724Z,10.70
2023-04-05T16:52:03.773Z,11.20
2023-04-05T16:54:51.801Z,11.60
2023-04-05T16:57:39.825Z,11.50
2023-04-05T17:00:27.915Z,11.40
2023-04-05T17:03:17.462Z,11.10
2023-04-05T17:06:05.872Z,11.00
2023-04-05T17:08:53.930Z,10.80
2023-04-05T17:11:41.986Z,10.70
2023-04-05T17:14:30.044Z,10.60
2023-04-05T17:17:18.058Z,10.50
2023-04-05T17:20:08.500Z,10.40
2023-04-05T17:22:58.320Z,10.30
2023-04-05T17:25:46.324Z,10.20
2023-04-05T17:28:34.810Z,10.20
2023-04-05T17:31:23.076Z,10.10
2023-04-05T17:34:13.315Z,10.10
2023-04-05T17:37:02.721Z,10.00
2023-04-05T17:39:50.746Z,10.00
2023-04-05T17:42:38.797Z,9.80
2023-04-05T17:45:27.566Z,9.80
2023-04-05T17:48:15.706Z,9.80
2023-04-05T17:51:05.829Z,9.70
2023-04-05T17:53:55.192Z,9.60
2023-04-05T17:56:43.241Z,9.60
2023-04-05T17:59:31.304Z,9.50
2023-04-05T18:02:19.448Z,9.50
2023-04-05T18:05:07.913Z,9.40
2023-04-05T18:07:56.152Z,9.30
2023-04-05T18:10:45.701Z,9.30
2023-04-05T18:13:33.697Z,9.20
2023-04-05T18:16:22.798Z,9.20
2023-04-05T18:19:10.904Z,9.00
2023-04-05T18:21:58.950Z,8.90
2023-04-05T18:24:47.191Z,8.80
2023-04-05T18:27:36.822Z,8.70
2023-04-05T18:30:24.892Z,8.60
2023-04-05T18:33:13.433Z,8.60
2023-04-05T18:36:02.062Z,8.50
2023-04-05T18:38:50.275Z,8.30
2023-04-05T18:41:38.336Z,8.20
2023-04-05T18:44:27.728Z,8.10
2023-04-05T18:47:15.727Z,8.00
2023-04-05T18:50:03.783Z,7.90
2023-04-05T18:52:51.846Z,7.90
2023-04-05T18:55:39.857Z,7.80
2023-04-05T18:58:27.878Z,7.70
2023-04-05T19:01:18.783Z,7.70
2023-04-05T19:04:07.007Z,7.60
2023-04-05T19:06:55.356Z,7.60
2023-04-05T19:09:43.401Z,7.50
2023-04-05T19:12:31.957Z,7.40
2023-04-05T19:15:20.025Z,7.30
2023-04-05T19:18:09.485Z,7.20
2023-04-05T19:20:58.426Z,7.10
2023-04-05T19:23:46.490Z,7.10
2023-04-05T19:26:34.605Z,7.00
2023-04-05T19:29:22.616Z,6.90
2023-04-05T19:32:10.670Z,6.80
2023-04-05T19:35:00.343Z,6.70
2023-04-05T19:37:48.407Z,6.60
2023-04-05T19:40:37.976Z,6.50
2023-04-05T19:43:26.358Z,6.40
2023-04-05T19:46:16.738Z,6.30
2023-04-05T19:49:08.289Z,6.30
2023-04-05T19:51:57.850Z,6.20
2023-04-05T19:54:46.368Z,6.10
2023-04-05T19:57:37.755Z,6.00
2023-04-05T20:00:32.560Z,5.90
2023-04-05T20:03:28.519Z,5.80
2023-04-05T20:06:18.282Z,5.80
2023-04-05T20:09:08.612Z,5.90
2023-04-05T20:11:57.840Z,5.80
2023-04-05T20:14:48.102Z,5.70
2023-04-05T20:17:36.246Z,5.70
2023-04-05T20:20:24.305Z,5.60
2023-04-05T20:23:12.340Z,5.60
2023-04-05T20:26:01.858Z,5.50
2023-04-05T20:28:53.468Z,5.50
2023-04-05T20:31:41.731Z,5.50
2023-04-05T20:34:31.704Z,5.50
2023-04-05T20:37:19.743Z,5.50
2023-04-05T20:40:08.467Z,5.50
2023-04-05T20:42:57.836Z,5.40
2023-04-05T20:45:46.695Z,5.40
2023-04-05T20:48:35.741Z,5.30
2023-04-05T20:51:23.856Z,5.20
2023-04-05T20:54:11.935Z,5.10
2023-04-05T20:56:59.970Z,5.00
2023-04-05T20:59:49.335Z,4.90
2023-04-05T21:02:37.447Z,4.90
2023-04-05T21:05:25.581Z,4.80
2023-04-05T21:08:13.737Z,4.80
2023-04-05T21:11:01.775Z,4.70
2023-04-05T21:13:49.787Z,4.60
2023-04-05T21:16:39.204Z,4.60
2023-04-05T21:19:27.246Z,4.60
2023-04-05T21:22:15.369Z,4.50
2023-04-05T21:25:05.555Z,4.50
2023-04-05T21:27:53.603Z,4.40
2023-04-05T21:30:41.645Z,4.30
2023-04-05T21:33:31.112Z,4.30
2023-04-05T21:36:19.207Z,4.20
2023-04-05T21:39:07.445Z,4.20
2023-04-05T21:41:56.047Z,4.00
2023-04-05T21:44:44.069Z,4.00
2023-04-05T21:47:32.164Z,4.00
2023-04-05T21:50:21.760Z,4.00
2023-04-05T21:53:10.364Z,4.00
2023-04-05T21:55:58.418Z,4.10
2023-04-05T21:58:46.454Z,4.00
2023-04-05T22:01:34.503Z,3.90
2023-04-05T22:04:23.422Z,3.80
2023-04-05T22:07:14.092Z,3.70
2023-04-05T22:10:02.602Z,3.60
2023-04-05T22:12:50.938Z,3.60
2023-04-05T22:15:38.983Z,3.50
2023-04-05T22:18:28.906Z,3.40
2023-04-05T22:21:16.966Z,3.40
2023-04-05T22:24:06.565Z,3.40
2023-04-05T22:26:56.474Z,3.40
2023-04-05T22:29:44.579Z,3.40
2023-04-05T22:32:32.708Z,3.30
2023-04-05T22:35:20.772Z,3.20
2023-04-05T22:38:08.979Z,3.20
2023-04-05T22:40:58.320Z,3.10
2023-04-05T22:43:46.378Z,3.10
2023-04-05T22:46:34.483Z,3.10
2023-04-05T22:49:22.598Z,3.10
2023-04-05T22:52:10.764Z,3.10
2023-04-05T22:54:58.812Z,3.10
2023-04-05T22:57:48.228Z,3.10
2023-04-05T23:00:38.483Z,3.20
2023-04-05T23:03:26.678Z,3.20
2023-04-05T23:06:14.814Z,3.20
2023-04-05T23:09:04.332Z,3.10
2023-04-05T23:11:52.381Z,3.20
2023-04-05T23:14:42.306Z,3.10
2023-04-05T23:17:30.590Z,3.10
2023-04-05T23:20:18.687Z,3.00
2023-04-05T23:23:06.748Z,2.90
2023-04-05T23:25:54.760Z,2.90
2023-04-05T23:28:42.796Z,2.80
2023-04-05T23:31:32.299Z,2.70
2023-04-05T23:34:20.551Z,2.70
2023-04-05T23:37:08.577Z,2.70
2023-04-05T23:39:56.694Z,2.70
2023-04-05T23:42:44.702Z,2.70
2023-04-05T23:45:32.770Z,2.60
2023-04-05T23:48:22.137Z,2.50
2023-04-05T23:51:10.171Z,2.50
2023-04-05T23:53:58.913Z,2.50
2023-04-05T23:56:46.954Z,2.50
2023-04-05T23:59:34.992Z,2.50
